Time;durP1;ratioP1;P1;durP2;ratioP2;P2;SDS_P1;SDS_P2;PMS_P1;PMS_P2;Temp;Humidity;BMP_temperature;BMP_pressure;BME280_temperature;BME280_humidity;BME280_pressure;Samples;Min_cycle;Max_cycle;Signal;HPM_P1;HPM_P2
2023/07/09 00:00:06;;;;;;;4.83;2.65;;;;;;;27.22;56.58;99078.41;1754916;81;21311;-80
2023/07/09 00:03:10;;;;;;;4.42;2.77;;;;;;;27.41;55.93;99067.02;1754795;81;21378;-81
2023/07/09 00:06:09;;;;;;;4.53;2.77;;;;;;;26.95;57.54;99068.05;1754860;81;21933;-81
2023/07/09 00:09:10;;;;;;;5.80;2.77;;;;;;;26.94;57.66;99070.59;1759200;81;21348;-81
2023/07/09 00:12:22;;;;;;;4.12;2.62;;;;;;;25.32;62.83;99069.67;1732738;82;21623;-81
2023/07/09 00:15:28;;;;;;;4.70;3.00;;;;;;;25.31;63.83;99063.78;1769422;81;21834;-80
2023/07/09 00:18:34;;;;;;;6.47;3.33;;;;;;;25.64;63.31;99061.84;1734927;82;21157;-80
2023/07/09 00:21:40;;;;;;;8.43;3.75;;;;;;;25.97;62.39;99066.36;1773800;79;21339;-80
2023/07/09 00:24:47;;;;;;;9.85;4.08;;;;;;;25.87;62.95;99055.88;1747432;82;21299;-80
2023/07/09 00:27:54;;;;;;;9.83;4.17;;;;;;;25.32;64.56;99064.08;1728850;83;21339;-80
2023/07/09 00:31:00;;;;;;;13.98;4.90;;;;;;;25.95;62.88;99063.59;1727886;83;21319;-80
2023/07/09 00:34:06;;;;;;;15.85;4.97;;;;;;;26.14;62.28;99062.95;1728822;83;21316;-80
2023/07/09 00:37:20;;;;;;;13.72;5.30;;;;;;;26.22;61.96;99061.41;1727733;82;21344;-80
2023/07/09 00:40:29;;;;;;;16.17;6.40;;;;;;;26.02;62.63;99065.44;1728310;83;21911;-80
2023/07/09 00:43:37;;;;;;;14.93;6.00;;;;;;;25.52;64.04;99066.54;1728905;83;21320;-80
2023/07/09 00:47:03;;;;;;;11.38;5.97;;;;;;;25.37;64.83;99073.22;1728783;83;21301;-80
2023/07/09 00:50:16;;;;;;;13.53;6.42;;;;;;;25.31;65.24;99068.81;1728586;83;21308;-80
2023/07/09 00:53:29;;;;;;;15.60;6.15;;;;;;;25.86;63.36;99078.86;1727500;83;21335;-80
2023/07/09 00:56:44;;;;;;;13.62;5.90;;;;;;;26.13;62.31;99083.70;1727492;83;21340;-80
2023/07/09 00:59:54;;;;;;;11.12;5.67;;;;;;;26.16;62.08;99084.50;1728905;83;21784;-80
2023/07/09 01:03:02;;;;;;;10.95;6.37;;;;;;;26.29;61.63;99089.84;1728214;83;22668;-80
2023/07/09 01:06:08;;;;;;;10.23;6.08;;;;;;;26.49;60.84;99093.70;1727713;82;21336;-80
2023/07/09 01:09:14;;;;;;;9.83;5.97;;;;;;;26.52;60.73;99099.24;1726854;83;21898;-80
2023/07/09 01:12:22;;;;;;;9.65;5.28;;;;;;;26.56;60.39;99098.05;1729385;83;21870;-80
2023/07/09 01:15:28;;;;;;;8.48;4.62;;;;;;;26.53;60.44;99102.88;1746732;82;21323;-81
2023/07/09 01:18:33;;;;;;;7.75;5.20;;;;;;;26.21;61.55;99105.99;1746686;82;21342;-81
2023/07/09 01:21:39;;;;;;;7.85;4.30;;;;;;;26.00;62.16;99105.52;1747181;82;21331;-81
2023/07/09 01:25:06;;;;;;;7.80;3.55;;;;;;;25.96;62.55;99108.66;1715090;83;21301;-81
2023/07/09 01:28:11;;;;;;;7.58;4.45;;;;;;;25.88;63.16;99114.42;1699204;84;21342;-80
2023/07/09 01:31:17;;;;;;;7.83;3.60;;;;;;;25.12;65.14;99114.98;1698666;84;21349;-80
2023/07/09 01:34:25;;;;;;;7.60;4.65;;;;;;;24.59;67.56;99117.05;1699261;84;21386;-80
2023/07/09 01:37:34;;;;;;;10.13;5.87;;;;;;;24.56;68.10;99124.08;1698656;84;21366;-80
2023/07/09 01:40:39;;;;;;;8.38;5.28;;;;;;;24.68;67.87;99125.88;1699086;84;21357;-80
2023/07/09 01:43:46;;;;;;;10.32;5.58;;;;;;;25.85;64.28;99124.83;1699431;84;21271;-80
2023/07/09 01:46:53;;;;;;;8.05;5.10;;;;;;;26.15;63.04;99129.05;1699186;84;21893;-80
2023/07/09 01:49:59;;;;;;;12.55;4.33;;;;;;;25.98;63.77;99129.64;1699245;84;21305;-80
2023/07/09 01:53:05;;;;;;;10.58;3.70;;;;;;;26.02;63.95;99135.47;1698491;84;21366;-80
2023/07/09 01:56:11;;;;;;;9.50;3.55;;;;;;;25.89;64.48;99126.45;1699037;84;21310;-80
2023/07/09 01:59:17;;;;;;;5.80;3.90;;;;;;;25.91;64.72;99126.39;1699208;84;21310;-80
2023/07/09 02:02:23;;;;;;;6.42;4.30;;;;;;;25.84;64.37;99130.73;1698121;84;22616;-80
2023/07/09 02:05:29;;;;;;;7.10;3.75;;;;;;;26.05;63.96;99132.03;1699271;84;21322;-80
2023/07/09 02:08:36;;;;;;;6.30;4.22;;;;;;;26.24;63.36;99138.41;1698854;84;21357;-80
2023/07/09 02:11:41;;;;;;;5.58;3.92;;;;;;;26.17;63.81;99125.39;1697936;84;21353;-80
2023/07/09 02:14:46;;;;;;;10.03;4.22;;;;;;;26.22;63.54;99129.50;1699203;84;21333;-80
2023/07/09 02:17:53;;;;;;;8.48;4.47;;;;;;;26.14;63.87;99123.19;1699245;84;21378;-80
2023/07/09 02:20:59;;;;;;;11.48;4.78;;;;;;;26.28;63.54;99128.00;1699172;84;21310;-80
2023/07/09 02:24:05;;;;;;;5.92;4.45;;;;;;;25.88;64.84;99128.42;1698940;84;21345;-80
2023/07/09 02:27:13;;;;;;;10.23;4.12;;;;;;;25.93;64.95;99130.30;1671543;84;21306;-80
2023/07/09 02:30:19;;;;;;;5.95;4.37;;;;;;;26.15;64.27;99122.05;1697928;84;21367;-80
2023/07/09 02:33:27;;;;;;;11.63;4.40;;;;;;;26.15;64.27;99123.45;1671655;84;21309;-80
2023/07/09 02:36:33;;;;;;;7.53;4.47;;;;;;;26.14;64.62;99130.20;1696852;84;21341;-80
2023/07/09 02:39:40;;;;;;;6.00;4.33;;;;;;;26.09;64.86;99133.09;1698009;84;21321;-80
2023/07/09 02:42:47;;;;;;;6.80;4.40;;;;;;;26.28;64.27;99136.41;1697204;84;21350;-80
2023/07/09 02:45:52;;;;;;;8.35;4.42;;;;;;;26.27;64.33;99136.98;1698003;84;21318;-81
2023/07/09 02:48:57;;;;;;;7.22;4.70;;;;;;;26.35;64.10;99134.88;1697913;84;21313;-81
2023/07/09 02:52:04;;;;;;;4.72;4.25;;;;;;;26.29;64.45;99132.45;1697770;84;21314;-81
2023/07/09 02:55:09;;;;;;;6.95;4.80;;;;;;;26.45;63.95;99129.10;1698016;84;21334;-81
2023/07/09 02:58:14;;;;;;;10.78;5.35;;;;;;;26.00;65.48;99135.76;1696634;84;21337;-80
2023/07/09 03:01:24;;;;;;;7.72;4.72;;;;;;;26.00;65.86;99137.16;1698074;84;21897;-81
2023/07/09 03:04:31;;;;;;;9.58;4.87;;;;;;;26.25;65.26;99140.10;1697965;84;21298;-81
2023/07/09 03:07:36;;;;;;;6.05;4.62;;;;;;;26.10;65.43;99134.75;1698004;84;21334;-81
2023/07/09 03:10:42;;;;;;;8.70;5.03;;;;;;;25.80;66.91;99119.31;1696558;83;21310;-81
2023/07/09 03:13:48;;;;;;;6.80;4.75;;;;;;;25.88;66.65;99134.59;1696691;84;21313;-81
2023/07/09 03:16:55;;;;;;;10.28;5.25;;;;;;;26.14;65.91;99128.80;1696672;84;21341;-80
2023/07/09 03:20:02;;;;;;;9.38;5.40;;;;;;;26.21;65.66;99130.64;1697933;84;21312;-80
2023/07/09 03:23:06;;;;;;;7.65;5.55;;;;;;;26.44;65.04;99127.98;1683266;84;21978;-80
2023/07/09 03:26:12;;;;;;;9.68;5.47;;;;;;;26.48;64.71;99134.06;1697166;83;21333;-80
2023/07/09 03:29:18;;;;;;;12.58;5.87;;;;;;;26.47;64.68;99156.81;1697938;84;21881;-80
2023/07/09 03:32:25;;;;;;;14.05;6.22;;;;;;;26.31;65.55;99134.40;1697652;84;21865;-80
2023/07/09 03:35:31;;;;;;;10.13;6.28;;;;;;;26.23;65.59;99140.13;1697927;84;21341;-80
2023/07/09 03:38:38;;;;;;;14.05;6.80;;;;;;;26.31;65.72;99144.20;1697765;84;21369;-80
2023/07/09 03:41:43;;;;;;;10.10;6.08;;;;;;;26.49;65.26;99136.33;1708169;83;21295;-80
2023/07/09 03:44:49;;;;;;;10.00;7.65;;;;;;;26.73;64.51;99144.55;1725720;83;21330;-80
2023/07/09 03:47:56;;;;;;;12.03;8.45;;;;;;;26.83;64.35;99150.52;1726882;83;21306;-80
2023/07/09 03:51:01;;;;;;;12.65;7.78;;;;;;;26.72;64.65;99154.94;1726959;83;21326;-80
2023/07/09 03:54:08;;;;;;;12.23;8.05;;;;;;;26.65;65.11;99151.70;1725842;83;21341;-80
2023/07/09 03:57:13;;;;;;;10.90;8.28;;;;;;;26.61;65.32;99152.05;1727074;83;21322;-80
2023/07/09 04:00:20;;;;;;;14.80;9.13;;;;;;;26.82;64.57;99146.89;1726997;83;21307;-80
2023/07/09 04:03:26;;;;;;;10.35;8.40;;;;;;;26.69;65.21;99149.94;1725808;83;21338;-80
2023/07/09 04:06:33;;;;;;;12.58;8.70;;;;;;;27.01;64.28;99145.38;1726932;83;21877;-81
2023/07/09 04:09:39;;;;;;;16.05;9.00;;;;;;;27.08;64.10;99143.53;1725950;83;21330;-81
2023/07/09 04:12:46;;;;;;;12.28;9.68;;;;;;;26.97;64.38;99149.94;1726407;82;21144;-81
2023/07/09 04:15:53;;;;;;;16.70;10.25;;;;;;;27.00;64.40;99150.13;1727120;83;21330;-81
2023/07/09 04:18:59;;;;;;;15.83;10.55;;;;;;;26.83;65.21;99151.92;1725618;83;21858;-82
2023/07/09 04:22:04;;;;;;;17.77;10.80;;;;;;;26.88;65.20;99155.45;1725372;83;21326;-82
2023/07/09 04:25:09;;;;;;;19.73;11.60;;;;;;;26.72;65.69;99154.94;1725542;83;21341;-80
2023/07/09 04:28:15;;;;;;;14.68;11.05;;;;;;;26.77;65.72;99156.78;1702455;83;21325;-80
2023/07/09 04:31:20;;;;;;;14.23;10.93;;;;;;;26.66;66.27;99163.17;1695791;84;21321;-80
2023/07/09 04:34:26;;;;;;;15.90;10.98;;;;;;;26.71;66.10;99161.67;1696035;84;21348;-80
2023/07/09 04:37:32;;;;;;;19.65;10.70;;;;;;;26.92;65.46;99157.89;1696777;84;21325;-80
2023/07/09 04:40:38;;;;;;;23.15;10.85;;;;;;;26.85;65.64;99158.87;1697355;84;21368;-80
2023/07/09 04:43:43;;;;;;;22.77;11.33;;;;;;;27.03;65.08;99145.05;1724087;83;21393;-80
2023/07/09 04:46:42;;;;;;;19.65;11.97;;;;;;;26.64;66.08;99144.44;1727193;83;21306;-80
2023/07/09 04:49:48;;;;;;;18.15;11.25;;;;;;;26.65;66.59;99144.69;1727131;83;21306;-80
2023/07/09 04:52:54;;;;;;;17.25;10.88;;;;;;;27.02;65.48;99142.82;1727082;83;21853;-80
2023/07/09 04:56:02;;;;;;;13.50;10.50;;;;;;;27.01;65.30;99142.56;1726346;83;21342;-80
2023/07/09 04:59:08;;;;;;;18.23;11.25;;;;;;;27.30;64.57;99142.23;1727017;83;21640;-80
2023/07/09 05:02:14;;;;;;;18.17;11.48;;;;;;;27.59;63.48;99148.03;1726875;83;21365;-80
2023/07/09 05:05:20;;;;;;;14.30;10.28;;;;;;;27.66;63.01;99145.02;1725901;83;21338;-80
2023/07/09 05:08:26;;;;;;;11.55;9.80;;;;;;;27.59;62.96;99147.46;1727224;83;21306;-80
2023/07/09 05:11:26;;;;;;;14.55;10.50;;;;;;;27.60;62.94;99150.52;1725639;83;21956;-80
2023/07/09 05:14:33;;;;;;;12.17;10.13;;;;;;;27.87;62.00;99153.02;1726728;83;21311;-80
2023/07/09 05:17:38;;;;;;;16.50;11.30;;;;;;;27.90;61.79;99163.05;1725689;83;21310;-80
2023/07/09 05:20:45;;;;;;;11.40;9.45;;;;;;;27.94;61.43;99149.99;1726980;83;21338;-80
2023/07/09 05:23:53;;;;;;;16.85;10.63;;;;;;;27.80;61.75;99149.80;1726980;83;22688;-81
2023/07/09 05:26:59;;;;;;;13.38;10.63;;;;;;;27.81;62.10;99161.28;1721725;83;21328;-81
2023/07/09 05:30:05;;;;;;;12.55;11.05;;;;;;;26.89;64.94;99157.68;1706329;84;21881;-81
2023/07/09 05:33:11;;;;;;;12.90;9.90;;;;;;;27.09;64.87;99160.08;1706356;84;21291;-81
2023/07/09 05:36:19;;;;;;;13.68;10.85;;;;;;;27.34;64.19;99160.12;1706312;84;21303;-81
2023/07/09 05:39:25;;;;;;;13.50;11.10;;;;;;;27.26;64.18;99150.45;1707023;84;21310;-81
2023/07/09 05:42:31;;;;;;;13.50;9.83;;;;;;;27.62;63.74;99141.22;1706445;83;21346;-81
2023/07/09 05:45:39;;;;;;;14.85;11.40;;;;;;;27.99;62.47;99151.84;1717379;83;21379;-81
2023/07/09 05:48:45;;;;;;;16.82;9.73;;;;;;;28.47;61.05;99142.77;1719315;83;21890;-81
2023/07/09 05:51:52;;;;;;;16.93;11.25;;;;;;;28.61;60.19;99144.08;1718835;83;21366;-81
2023/07/09 05:54:59;;;;;;;11.45;10.00;;;;;;;28.63;59.46;99148.79;1718293;83;21331;-81
2023/07/09 05:58:06;;;;;;;12.33;10.15;;;;;;;28.87;58.48;99155.42;1717329;83;21311;-81
2023/07/09 06:01:12;;;;;;;15.95;10.25;;;;;;;29.31;57.19;99149.36;1717397;83;21604;-81
2023/07/09 06:04:19;;;;;;;11.55;9.25;;;;;;;29.46;56.29;99148.91;1717351;83;21304;-81
2023/07/09 06:07:24;;;;;;;10.35;9.23;;;;;;;29.41;56.30;99156.11;1718658;83;21324;-81
2023/07/09 06:10:30;;;;;;;17.42;10.00;;;;;;;29.08;57.01;99155.13;1718787;83;21351;-80
2023/07/09 06:13:37;;;;;;;12.28;8.55;;;;;;;29.14;56.80;99157.20;1718894;83;21295;-80
2023/07/09 06:16:43;;;;;;;10.50;8.63;;;;;;;29.03;57.60;99157.52;1719054;83;21307;-80
2023/07/09 06:19:49;;;;;;;13.68;8.08;;;;;;;29.02;57.45;99160.63;1718718;83;21641;-80
2023/07/09 06:22:55;;;;;;;8.90;7.55;;;;;;;29.06;57.29;99163.63;1717291;83;21918;-80
2023/07/09 06:26:01;;;;;;;9.58;7.70;;;;;;;28.64;58.85;99159.70;1717759;82;21339;-80
2023/07/09 06:29:08;;;;;;;9.55;7.40;;;;;;;28.90;58.34;99156.19;1719780;82;21331;-80
2023/07/09 06:32:14;;;;;;;9.78;6.40;;;;;;;28.83;59.20;99150.19;1719871;83;21343;-80
2023/07/09 06:35:19;;;;;;;9.28;6.50;;;;;;;28.99;58.48;99159.90;1720007;83;21303;-80
2023/07/09 06:38:19;;;;;;;6.70;6.10;;;;;;;29.36;56.58;99135.11;1721795;83;21320;-80
2023/07/09 06:41:25;;;;;;;9.05;6.55;;;;;;;29.38;56.45;99133.64;1719959;82;21330;-80
2023/07/09 06:44:33;;;;;;;6.50;5.75;;;;;;;29.67;55.27;99138.66;1700282;83;21313;-80
2023/07/09 06:47:38;;;;;;;6.28;5.50;;;;;;;29.52;55.58;99130.67;1692663;85;21332;-80
2023/07/09 06:50:45;;;;;;;5.95;4.78;;;;;;;29.44;55.38;99139.94;1692530;85;21321;-80
2023/07/09 06:53:52;;;;;;;5.33;4.60;;;;;;;29.47;55.45;99133.07;1691072;85;21899;-80
2023/07/09 06:56:59;;;;;;;8.00;4.87;;;;;;;29.49;54.92;99144.00;1691062;85;21345;-80
2023/07/09 07:00:04;;;;;;;8.13;4.08;;;;;;;29.54;54.15;99142.42;1692321;83;21372;-80
2023/07/09 07:03:12;;;;;;;5.08;4.08;;;;;;;29.41;54.43;99137.22;1691533;83;21380;-80
2023/07/09 07:06:18;;;;;;;11.22;4.25;;;;;;;29.39;53.85;99162.05;1691793;85;21702;-80
2023/07/09 07:09:23;;;;;;;3.92;3.45;;;;;;;29.69;52.39;99146.77;1691014;85;21964;-80
2023/07/09 07:12:36;;;;;;;4.97;3.52;;;;;;;29.62;52.84;99143.05;1691999;85;21346;-82
2023/07/09 07:15:42;;;;;;;4.62;3.33;;;;;;;29.72;52.74;99137.66;1692345;85;21880;-82
2023/07/09 07:18:50;;;;;;;5.33;4.22;;;;;;;29.96;51.29;99144.20;1692423;85;21326;-81
2023/07/09 07:21:55;;;;;;;4.55;4.15;;;;;;;30.28;50.65;99128.75;1692507;85;21318;-82
2023/07/09 07:25:02;;;;;;;3.70;3.40;;;;;;;30.23;50.93;99137.39;1691281;83;21334;-81
2023/07/09 07:28:09;;;;;;;3.47;3.08;;;;;;;30.19;50.69;99136.41;1691805;85;21695;-81
2023/07/09 07:31:16;;;;;;;4.87;3.47;;;;;;;30.41;51.12;99141.83;1664459;86;21940;-82
2023/07/09 07:34:22;;;;;;;3.80;3.40;;;;;;;30.86;49.59;99152.63;1663197;86;21392;-79
2023/07/09 07:37:20;;;;;;;7.03;3.25;;;;;;;31.12;48.21;99142.63;1663458;86;21332;-80
2023/07/09 07:40:14;;;;;;;12.78;3.08;;;;;;;30.94;48.20;99150.95;1663701;86;21377;-80
2023/07/09 07:43:20;;;;;;;2.83;2.62;;;;;;;30.75;48.74;99155.02;1664637;86;21332;-79
2023/07/09 07:46:19;;;;;;;2.90;2.35;;;;;;;30.93;48.37;99147.30;1664599;86;21971;-79
2023/07/09 07:49:25;;;;;;;4.17;2.45;;;;;;;30.92;47.77;99153.30;1663454;86;21367;-80
2023/07/09 07:52:37;;;;;;;3.92;2.50;;;;;;;30.39;48.68;99156.01;1664739;86;21316;-80
2023/07/09 07:55:44;;;;;;;3.85;2.37;;;;;;;30.21;49.26;99158.89;1663399;86;21320;-81
2023/07/09 07:58:50;;;;;;;5.30;2.77;;;;;;;29.99;50.88;99152.00;1664495;86;21329;-82
2023/07/09 08:01:54;;;;;;;3.37;2.47;;;;;;;30.33;50.29;99153.13;1689617;85;21360;-80
2023/07/09 08:04:54;;;;;;;3.42;2.83;;;;;;;30.51;49.80;99156.16;1689824;85;21934;-80
2023/07/09 08:08:01;;;;;;;3.55;2.62;;;;;;;30.22;50.58;99159.12;1689977;85;21355;-80
2023/07/09 08:11:13;;;;;;;3.17;2.87;;;;;;;30.42;49.60;99162.40;1691016;85;21315;-80
2023/07/09 08:14:18;;;;;;;3.58;3.10;;;;;;;30.56;49.59;99182.77;1691107;85;21311;-80
2023/07/09 08:17:24;;;;;;;4.08;3.25;;;;;;;30.49;48.57;99166.95;1690305;85;21308;-80
2023/07/09 08:20:29;;;;;;;5.40;2.92;;;;;;;30.64;47.76;99166.98;1690957;85;21320;-80
2023/07/09 08:23:36;;;;;;;4.35;2.80;;;;;;;30.56;48.05;99172.89;1691020;85;21340;-80
2023/07/09 08:26:42;;;;;;;6.42;3.33;;;;;;;30.70;47.19;99164.22;1690945;85;21367;-80
2023/07/09 08:29:48;;;;;;;3.55;3.25;;;;;;;30.55;47.60;99173.48;1690833;84;21288;-80
2023/07/09 08:32:54;;;;;;;3.52;3.02;;;;;;;30.69;46.87;99168.22;1695670;84;21351;-80
2023/07/09 08:36:01;;;;;;;5.50;3.83;;;;;;;30.93;46.16;99173.30;1695836;84;21329;-80
2023/07/09 08:39:09;;;;;;;4.25;2.98;;;;;;;30.64;47.07;99172.05;1695450;84;21317;-80
2023/07/09 08:42:20;;;;;;;6.90;3.42;;;;;;;30.91;46.78;99176.47;1695461;84;21316;-80
2023/07/09 08:45:52;;;;;;;11.57;3.70;;;;;;;30.67;48.04;99195.34;1696162;84;21310;-80
2023/07/09 08:48:58;;;;;;;5.37;3.67;;;;;;;30.35;49.23;99185.48;1696841;84;21389;-80
2023/07/09 08:52:03;;;;;;;7.65;3.60;;;;;;;30.35;49.37;99188.86;1696972;84;21322;-80
2023/07/09 08:55:16;;;;;;;7.37;3.60;;;;;;;30.49;49.59;99190.94;1695830;84;21326;-80
2023/07/09 08:58:15;;;;;;;6.67;4.10;;;;;;;30.26;49.68;99191.14;1696160;84;21330;-80
2023/07/09 09:01:32;;;;;;;4.33;3.92;;;;;;;29.89;50.28;99199.67;1697067;83;21361;-80
2023/07/09 09:04:40;;;;;;;4.87;4.30;;;;;;;29.75;50.68;99191.38;1696168;84;21345;-80
2023/07/09 09:07:51;;;;;;;9.00;3.80;;;;;;;29.51;51.75;99197.45;1696730;84;21386;-80
2023/07/09 09:11:10;;;;;;;4.85;3.60;;;;;;;29.72;51.95;99199.07;1697120;84;21369;-80
2023/07/09 09:14:32;;;;;;;4.28;3.85;;;;;;;29.13;53.94;99222.53;1697161;84;21326;-80
2023/07/09 09:17:38;;;;;;;8.60;4.85;;;;;;;28.92;55.45;99206.76;1684556;85;21319;-84
2023/07/09 09:20:45;;;;;;;5.03;4.30;;;;;;;29.03;57.57;99215.80;1683890;85;21382;-81
2023/07/09 09:23:59;;;;;;;8.78;5.15;;;;;;;28.97;57.67;99213.68;1684854;85;21315;-81
2023/07/09 09:27:05;;;;;;;11.48;5.40;;;;;;;28.96;59.06;99213.44;1685699;85;21304;-80
2023/07/09 09:30:10;;;;;;;7.17;5.65;;;;;;;28.30;61.81;99211.52;1687019;83;21322;-81
2023/07/09 09:33:18;;;;;;;7.83;5.30;;;;;;;28.39;62.21;99212.44;1695694;84;21330;-80
2023/07/09 09:36:32;;;;;;;12.65;6.53;;;;;;;28.05;63.67;99217.21;1696982;84;22520;-80
2023/07/09 09:39:30;;;;;;;6.28;5.67;;;;;;;28.42;63.10;99215.99;1695896;84;21349;-80
2023/07/09 09:42:22;;;;;;;8.08;6.40;;;;;;;28.41;63.76;99218.56;1695770;84;21337;-80
2023/07/09 09:45:41;;;;;;;7.50;6.22;;;;;;;28.25;63.87;99215.29;1697185;83;21310;-80
2023/07/09 09:48:46;;;;;;;6.22;5.35;;;;;;;28.16;64.14;99221.42;1696310;84;21645;-80
2023/07/09 09:51:56;;;;;;;12.53;6.00;;;;;;;28.05;63.81;99221.42;1697062;84;21337;-80
2023/07/09 09:55:03;;;;;;;8.25;6.25;;;;;;;27.91;64.79;99217.26;1697290;84;21338;-80
2023/07/09 09:58:08;;;;;;;8.73;6.67;;;;;;;27.81;65.17;99228.71;1681422;84;21358;-80
2023/07/09 10:01:23;;;;;;;8.30;6.17;;;;;;;27.75;65.47;99221.81;1696995;83;21279;-80
2023/07/09 10:04:29;;;;;;;8.43;6.67;;;;;;;27.87;65.00;99206.39;1695786;84;21334;-80
2023/07/09 10:07:49;;;;;;;8.38;6.92;;;;;;;28.28;64.37;99210.44;1697029;84;21329;-80
2023/07/09 10:10:55;;;;;;;7.30;6.05;;;;;;;28.52;63.96;99201.11;1697194;84;21909;-80
2023/07/09 10:13:56;;;;;;;6.03;5.42;;;;;;;28.36;63.81;99212.48;1695768;84;21235;-80
2023/07/09 10:17:19;;;;;;;8.03;6.08;;;;;;;28.60;63.40;99209.91;1696921;84;22613;-80
2023/07/09 10:20:47;;;;;;;6.78;5.97;;;;;;;29.05;60.73;99212.06;1696803;84;22023;-80
2023/07/09 10:24:08;;;;;;;8.83;5.97;;;;;;;29.34;59.39;99210.66;1696969;84;21317;-80
2023/07/09 10:27:24;;;;;;;8.90;6.35;;;;;;;29.08;59.60;99213.38;1696926;84;21341;-80
2023/07/09 10:31:00;;;;;;;12.28;9.63;;;;;;;29.32;58.27;99218.63;1696831;84;21350;-80
2023/07/09 10:34:34;;;;;;;16.05;12.60;;;;;;;29.53;58.07;99218.24;1696909;84;21364;-80
2023/07/09 10:37:50;;;;;;;22.73;10.60;;;;;;;28.88;60.17;99234.47;1698035;84;21873;-84
2023/07/09 10:41:05;;;;;;;18.95;11.53;;;;;;;28.11;63.47;99243.45;1698056;84;21306;-80
2023/07/09 10:44:28;;;;;;;23.22;14.93;;;;;;;27.15;66.01;99240.81;1697882;84;21326;-80
2023/07/09 10:47:43;;;;;;;24.92;18.25;;;;;;;26.78;68.34;99240.38;1713469;83;21298;-80
2023/07/09 10:50:45;;;;;;;31.00;18.02;;;;;;;26.59;69.84;99238.48;1717671;83;21366;-81
2023/07/09 10:53:47;;;;;;;31.68;19.15;;;;;;;26.49;71.37;99249.88;1717372;83;21623;-81
2023/07/09 10:56:35;;;;;;;22.85;15.20;;;;;;;27.05;70.30;99247.41;1716391;83;21313;-81
2023/07/09 10:59:43;;;;;;;17.02;13.85;;;;;;;26.94;70.44;99242.57;1716467;83;21338;-81
2023/07/09 11:02:48;;;;;;;20.85;14.55;;;;;;;27.04;69.49;99244.34;1700687;83;21932;-81
2023/07/09 11:05:55;;;;;;;21.00;14.28;;;;;;;27.29;68.24;99248.66;1697763;84;21415;-81
2023/07/09 11:09:01;;;;;;;22.80;15.28;;;;;;;27.45;67.84;99253.37;1697714;84;21364;-81
2023/07/09 11:12:23;;;;;;;21.02;15.58;;;;;;;27.00;69.08;99261.53;1696701;84;21330;-81
2023/07/09 11:15:41;;;;;;;23.20;17.70;;;;;;;27.11;68.23;99268.66;1697860;84;21328;-80
2023/07/09 11:18:48;;;;;;;25.85;16.73;;;;;;;27.32;67.43;99273.86;1717787;83;21313;-80
2023/07/09 11:22:24;;;;;;;19.70;14.00;;;;;;;26.96;67.36;99284.34;1717110;83;21347;-80
2023/07/09 11:25:49;;;;;;;14.25;11.03;;;;;;;26.95;67.02;99285.48;1717608;83;21317;-80
2023/07/09 11:28:59;;;;;;;13.28;10.35;;;;;;;26.93;66.02;99282.17;1717606;83;21337;-80
2023/07/09 11:32:06;;;;;;;9.78;8.58;;;;;;;26.84;66.88;99270.00;1701437;83;21290;-80
2023/07/09 11:35:16;;;;;;;9.73;8.33;;;;;;;26.97;65.71;99277.61;1709443;84;21331;-80
2023/07/09 11:38:28;;;;;;;11.53;7.28;;;;;;;26.97;66.02;99275.63;1764785;81;21303;-80
2023/07/09 11:41:51;;;;;;;10.18;7.00;;;;;;;27.09;64.99;99277.12;1765959;81;21307;-80
2023/07/09 11:45:09;;;;;;;9.45;7.40;;;;;;;27.07;64.67;99280.21;1762900;81;21866;-80
2023/07/09 11:48:25;;;;;;;10.60;7.05;;;;;;;27.05;64.46;99292.30;1770123;81;21285;-80
2023/07/09 11:51:34;;;;;;;8.50;7.20;;;;;;;27.26;62.60;99302.03;1770915;81;21336;-80
2023/07/09 11:54:46;;;;;;;10.90;7.30;;;;;;;26.91;63.80;99285.84;1734205;82;21326;-81
2023/07/09 11:58:06;;;;;;;9.38;8.38;;;;;;;26.72;64.77;99284.50;1770958;81;21312;-80
2023/07/09 12:01:13;;;;;;;19.55;12.37;;;;;;;27.01;63.94;99289.88;1732681;82;21295;-80
2023/07/09 12:04:25;;;;;;;17.30;10.75;;;;;;;26.82;64.75;99291.89;1770964;81;22569;-80
2023/07/09 12:07:31;;;;;;;13.05;8.00;;;;;;;26.96;64.60;99289.95;1770285;81;21332;-80
2023/07/09 12:10:40;;;;;;;10.53;7.70;;;;;;;26.51;64.97;99296.66;1734577;82;21351;-80
2023/07/09 12:13:47;;;;;;;9.43;7.60;;;;;;;26.60;64.52;99303.23;1770998;81;21297;-80
2023/07/09 12:17:00;;;;;;;14.68;8.40;;;;;;;26.54;64.63;99304.47;1730279;82;21303;-81
2023/07/09 12:20:06;;;;;;;11.35;8.70;;;;;;;26.37;65.46;99296.56;1754373;81;21306;-80
2023/07/09 12:23:37;;;;;;;10.82;8.90;;;;;;;26.27;65.70;99305.72;1754696;81;21330;-81
2023/07/09 12:26:44;;;;;;;8.55;7.58;;;;;;;26.13;65.56;99310.68;1755751;81;21299;-82
2023/07/09 12:29:49;;;;;;;18.87;7.53;;;;;;;26.22;64.29;99307.45;1755834;81;21331;-81
2023/07/09 12:32:57;;;;;;;8.63;6.72;;;;;;;25.90;64.98;99310.18;1749054;81;21899;-81
2023/07/09 12:36:11;;;;;;;10.82;7.40;;;;;;;26.12;64.55;99303.41;1739811;81;21329;-81
2023/07/09 12:39:17;;;;;;;10.10;7.35;;;;;;;26.11;64.75;99300.35;1740391;82;21309;-80
2023/07/09 12:42:38;;;;;;;10.88;7.47;;;;;;;26.62;63.00;99309.35;1740132;82;21337;-80
2023/07/09 12:45:45;;;;;;;8.60;6.40;;;;;;;26.65;62.79;99317.16;1740384;82;21304;-81
2023/07/09 12:48:53;;;;;;;15.40;6.65;;;;;;;26.39;63.02;99323.71;1738978;81;21297;-80
2023/07/09 12:52:01;;;;;;;11.60;6.50;;;;;;;26.29;62.55;99316.04;1738850;82;21361;-80
2023/07/09 12:55:08;;;;;;;9.08;6.72;;;;;;;26.13;62.87;99321.89;1740255;82;21313;-80
2023/07/09 12:58:33;;;;;;;7.67;6.08;;;;;;;25.82;63.68;99324.84;1739702;82;21344;-80
2023/07/09 13:01:42;;;;;;;12.07;6.62;;;;;;;25.80;63.48;99330.76;1731429;82;21309;-80
2023/07/09 13:04:48;;;;;;;10.38;6.10;;;;;;;25.72;63.76;99349.59;1740343;82;21868;-79
2023/07/09 13:07:59;;;;;;;8.83;6.50;;;;;;;25.53;63.81;99339.75;1740315;82;21305;-80
2023/07/09 13:11:07;;;;;;;8.48;6.70;;;;;;;25.41;63.69;99335.15;1739961;82;21904;-80
2023/07/09 13:14:15;;;;;;;8.95;6.10;;;;;;;25.42;63.48;99348.01;1739269;82;21719;-80
2023/07/09 13:17:21;;;;;;;10.05;5.85;;;;;;;25.62;62.74;99339.36;1740332;82;21334;-81
2023/07/09 13:20:26;;;;;;;7.25;5.80;;;;;;;25.31;63.83;99342.23;1696462;82;21350;-80
2023/07/09 13:23:35;;;;;;;8.83;5.70;;;;;;;25.70;62.45;99361.10;1740291;82;21306;-80
2023/07/09 13:26:40;;;;;;;7.62;5.53;;;;;;;25.69;61.83;99355.81;1740279;82;21884;-80
2023/07/09 13:29:46;;;;;;;9.58;5.40;;;;;;;25.88;60.88;99339.08;1738935;82;21369;-81
2023/07/09 13:32:54;;;;;;;7.47;5.53;;;;;;;26.06;60.33;99339.63;1739024;81;21341;-80
2023/07/09 13:36:00;;;;;;;8.35;5.75;;;;;;;26.09;60.28;99351.64;1744217;81;21341;-80
2023/07/09 13:39:05;;;;;;;11.00;5.83;;;;;;;26.31;59.45;99344.62;1748155;82;21328;-80
2023/07/09 13:42:18;;;;;;;10.23;5.28;;;;;;;26.49;57.59;99347.44;1747368;82;21840;-80
2023/07/09 13:45:30;;;;;;;8.88;5.20;;;;;;;26.42;57.48;99349.75;1748281;82;21351;-80
2023/07/09 13:48:39;;;;;;;10.70;4.85;;;;;;;26.23;57.60;99351.16;1748350;81;21286;-80
2023/07/09 13:51:45;;;;;;;9.68;4.95;;;;;;;26.52;56.51;99343.17;1746932;82;21306;-80
2023/07/09 13:54:50;;;;;;;7.65;5.10;;;;;;;26.42;56.12;99361.53;1748325;82;21310;-80
2023/07/09 13:57:57;;;;;;;12.58;4.65;;;;;;;26.52;56.08;99354.39;1749209;82;21274;-81
2023/07/09 14:01:06;;;;;;;9.15;4.78;;;;;;;26.76;55.35;99360.72;1748240;82;21334;-80
2023/07/09 14:04:13;;;;;;;6.85;4.80;;;;;;;26.95;55.16;99360.66;1755397;81;21723;-80
2023/07/09 14:07:35;;;;;;;12.35;4.70;;;;;;;26.81;55.19;99368.20;1761279;81;21243;-80
2023/07/09 14:10:41;;;;;;;14.33;4.83;;;;;;;26.77;54.61;99362.95;1761276;81;21279;-80
2023/07/09 14:13:48;;;;;;;13.25;5.00;;;;;;;26.82;54.06;99371.30;1760998;81;21330;-80
2023/07/09 14:16:54;;;;;;;8.80;4.75;;;;;;;26.83;54.43;99362.31;1761069;81;21299;-80
2023/07/09 14:20:00;;;;;;;8.40;4.72;;;;;;;26.87;53.32;99373.19;1750768;81;21298;-80
2023/07/09 14:23:06;;;;;;;6.65;4.40;;;;;;;26.82;53.29;99378.31;1747358;82;21301;-80
2023/07/09 14:26:11;;;;;;;6.60;3.95;;;;;;;26.81;52.80;99374.39;1748409;82;21294;-80
2023/07/09 14:29:19;;;;;;;6.70;3.92;;;;;;;26.65;52.17;99380.84;1747998;82;21381;-80
2023/07/09 14:32:36;;;;;;;8.35;4.12;;;;;;;26.61;52.06;99383.98;1747919;82;21334;-80
2023/07/09 14:35:42;;;;;;;8.23;3.70;;;;;;;26.76;51.21;99391.56;1761110;81;21291;-80
2023/07/09 14:38:41;;;;;;;9.20;4.35;;;;;;;26.53;52.09;99385.49;1761081;81;21299;-80